createdAt,value
2023-02-05T00:00:10.271Z,12.10
2023-02-05T00:02:12.685Z,12.27
2023-02-05T00:04:16.366Z,10.30
2023-02-05T00:06:18.637Z,8.88
2023-02-05T00:08:20.404Z,9.20
2023-02-05T00:10:23.502Z,8.90
2023-02-05T00:12:25.163Z,9.23
2023-02-05T00:14:26.793Z,8.10
2023-02-05T00:16:28.799Z,7.85
2023-02-05T00:18:30.610Z,8.13
2023-02-05T00:20:32.241Z,9.38
2023-02-05T00:22:33.935Z,7.68
2023-02-05T00:24:35.590Z,9.63
2023-02-05T00:26:42.161Z,8.80
2023-02-05T00:28:44.052Z,8.43
2023-02-05T00:30:45.845Z,8.02
2023-02-05T00:32:47.474Z,8.95
2023-02-05T00:34:49.335Z,8.75
2023-02-05T00:36:50.938Z,9.65
2023-02-05T00:38:52.622Z,10.65
2023-02-05T00:40:54.279Z,11.48
2023-02-05T00:42:57.177Z,11.80
2023-02-05T00:44:58.739Z,10.80
2023-02-05T00:47:00.547Z,9.45
2023-02-05T00:49:02.046Z,10.45
2023-02-05T00:51:03.872Z,9.88
2023-02-05T00:53:05.439Z,9.27
2023-02-05T00:55:07.945Z,9.07
2023-02-05T00:57:09.796Z,8.43
2023-02-05T00:59:12.721Z,7.55
2023-02-05T01:01:14.923Z,6.57
2023-02-05T01:03:16.687Z,6.75
2023-02-05T01:05:18.481Z,6.95
2023-02-05T01:07:20.575Z,8.60
2023-02-05T01:09:22.421Z,7.97
2023-02-05T01:11:24.052Z,7.65
2023-02-05T01:13:25.705Z,7.22
2023-02-05T01:15:28.617Z,8.15
2023-02-05T01:17:30.187Z,7.68
2023-02-05T01:19:33.339Z,8.10
2023-02-05T01:21:34.974Z,8.85
2023-02-05T01:23:36.546Z,8.00
2023-02-05T01:25:38.157Z,9.18
2023-02-05T01:27:39.663Z,7.75
2023-02-05T01:29:41.334Z,8.25
2023-02-05T01:31:44.600Z,8.63
2023-02-05T01:33:46.213Z,8.82
2023-02-05T01:35:48.518Z,7.60
2023-02-05T01:37:50.144Z,9.20
2023-02-05T01:39:51.671Z,8.88
2023-02-05T01:41:53.188Z,9.25
2023-02-05T01:44:09.418Z,9.60
2023-02-05T01:46:20.282Z,8.55
2023-02-05T01:48:27.633Z,9.25
2023-02-05T01:50:32.308Z,9.88
2023-02-05T01:52:33.888Z,9.95
2023-02-05T01:54:39.330Z,9.88
2023-02-05T01:56:45.232Z,9.23
2023-02-05T01:58:51.913Z,9.30
2023-02-05T02:00:53.787Z,9.18
2023-02-05T02:02:55.781Z,8.40
2023-02-05T02:07:11.388Z,7.18
2023-02-05T02:09:12.925Z,8.80
2023-02-05T02:11:18.008Z,8.77
2023-02-05T02:13:22.423Z,6.97
2023-02-05T02:15:27.027Z,7.10
2023-02-05T02:17:29.978Z,7.32
2023-02-05T02:19:34.297Z,7.30
2023-02-05T02:22:14.783Z,7.22
2023-02-05T02:24:49.004Z,6.68
2023-02-05T02:27:02.628Z,6.40
2023-02-05T02:29:05.685Z,6.80
2023-02-05T02:31:11.298Z,6.72
2023-02-05T02:33:19.137Z,6.57
2023-02-05T02:35:27.260Z,6.40
2023-02-05T02:37:36.068Z,6.50
2023-02-05T02:39:42.311Z,6.70
2023-02-05T02:41:51.624Z,9.05
2023-02-05T02:43:56.554Z,8.88
2023-02-05T02:46:04.344Z,8.32
2023-02-05T02:48:07.246Z,9.05
2023-02-05T02:50:13.997Z,8.95
2023-02-05T02:52:19.368Z,9.90
2023-02-05T02:54:22.204Z,10.18
2023-02-05T02:56:26.122Z,8.90
2023-02-05T02:58:32.598Z,9.18
2023-02-05T03:00:34.279Z,9.27
2023-02-05T03:02:38.204Z,9.40
2023-02-05T03:04:42.693Z,7.72
2023-02-05T03:06:48.174Z,8.73
2023-02-05T03:08:54.495Z,7.80
2023-02-05T03:11:01.737Z,9.77
2023-02-05T03:13:03.370Z,9.07
2023-02-05T03:15:06.514Z,8.15
2023-02-05T03:17:08.077Z,8.85
2023-02-05T03:19:10.985Z,7.95
2023-02-05T03:21:17.255Z,7.70
2023-02-05T03:23:18.873Z,7.53
2023-02-05T03:25:22.691Z,6.28
2023-02-05T03:27:24.298Z,7.65
2023-02-05T03:29:28.048Z,7.25
2023-02-05T03:31:41.295Z,7.60
2023-02-05T03:33:54.601Z,6.75
2023-02-05T03:36:04.960Z,5.35
2023-02-05T03:38:29.296Z,6.25
2023-02-05T03:40:38.019Z,6.25
2023-02-05T03:42:49.045Z,6.35
2023-02-05T03:45:07.609Z,5.28
2023-02-05T03:47:16.078Z,6.18
2023-02-05T03:49:21.227Z,6.53
2023-02-05T03:51:35.375Z,5.75
2023-02-05T03:53:43.676Z,6.18
2023-02-05T03:55:49.953Z,5.35
2023-02-05T03:57:58.832Z,6.00
2023-02-05T04:00:03.879Z,6.13
2023-02-05T04:02:06.076Z,5.93
2023-02-05T04:04:07.702Z,6.05
2023-02-05T04:06:09.424Z,5.80
2023-02-05T04:08:12.335Z,5.72
2023-02-05T04:10:14.106Z,5.22
2023-02-05T04:12:15.672Z,5.50
2023-02-05T04:14:17.200Z,5.90
2023-02-05T04:16:18.754Z,5.50
2023-02-05T04:18:20.508Z,5.80
2023-02-05T04:20:22.207Z,5.10
2023-02-05T04:22:23.758Z,4.63
2023-02-05T04:24:26.881Z,4.78
2023-02-05T04:26:28.433Z,5.32
2023-02-05T04:28:29.993Z,4.90
2023-02-05T04:30:31.825Z,4.60
2023-02-05T04:32:33.372Z,5.18
2023-02-05T04:34:34.904Z,5.53
2023-02-05T04:36:36.447Z,4.88
2023-02-05T04:38:37.977Z,5.03
2023-02-05T04:40:40.929Z,4.57
2023-02-05T04:42:42.498Z,4.82
2023-02-05T04:44:44.009Z,4.63
2023-02-05T04:46:48.670Z,5.18
2023-02-05T04:48:50.272Z,4.82
2023-02-05T04:50:51.810Z,4.90
2023-02-05T04:52:53.365Z,4.60
2023-02-05T04:54:54.891Z,4.57
2023-02-05T04:56:57.772Z,5.20
2023-02-05T04:58:59.330Z,4.80
2023-02-05T05:01:01.036Z,5.35
2023-02-05T05:03:02.620Z,4.50
2023-02-05T05:05:04.558Z,5.45
2023-02-05T05:07:06.198Z,4.88
2023-02-05T05:09:07.720Z,4.93
2023-02-05T05:11:11.961Z,4.35
2023-02-05T05:13:14.837Z,4.40
2023-02-05T05:15:16.554Z,4.28
2023-02-05T05:17:18.118Z,4.05
2023-02-05T05:19:19.659Z,4.38
2023-02-05T05:21:23.550Z,4.65
2023-02-05T05:23:25.558Z,4.10
2023-02-05T05:25:27.065Z,4.28
2023-02-05T05:27:28.752Z,4.13
2023-02-05T05:29:31.641Z,4.63
2023-02-05T05:31:33.196Z,4.13
2023-02-05T05:33:34.873Z,3.50
2023-02-05T05:35:37.008Z,3.83
2023-02-05T05:37:38.514Z,4.35
2023-02-05T05:39:40.026Z,4.13
2023-02-05T05:41:41.551Z,4.35
2023-02-05T05:43:43.087Z,3.78
2023-02-05T05:45:46.155Z,3.80
2023-02-05T05:47:47.912Z,3.85
2023-02-05T05:49:49.775Z,4.65
2023-02-05T05:51:51.327Z,4.40
2023-02-05T05:53:52.892Z,4.55
2023-02-05T05:55:54.384Z,4.22
2023-02-05T05:57:55.875Z,5.05
2023-02-05T05:59:57.396Z,4.80
2023-02-05T06:02:00.555Z,4.00
2023-02-05T06:04:04.161Z,4.38
2023-02-05T06:06:07.797Z,4.30
2023-02-05T06:08:09.361Z,4.60
2023-02-05T06:10:10.928Z,4.53
2023-02-05T06:12:12.480Z,4.60
2023-02-05T06:14:13.983Z,5.00
2023-02-05T06:16:15.496Z,4.57
2023-02-05T06:18:18.680Z,5.90
2023-02-05T06:20:23.438Z,4.90
2023-02-05T06:22:26.222Z,4.90
2023-02-05T06:24:29.567Z,5.55
2023-02-05T06:26:32.590Z,5.40
2023-02-05T06:28:34.135Z,4.63
2023-02-05T06:30:35.746Z,5.35
2023-02-05T06:32:37.216Z,5.70
2023-02-05T06:34:40.073Z,5.38
2023-02-05T06:36:44.389Z,5.60
2023-02-05T06:38:46.002Z,6.50
2023-02-05T06:40:48.212Z,5.65
2023-02-05T06:42:49.901Z,5.63
2023-02-05T06:44:51.470Z,6.63
2023-02-05T06:46:52.984Z,6.10
2023-02-05T06:48:54.551Z,6.90
2023-02-05T06:50:57.418Z,7.50
2023-02-05T06:52:59.066Z,7.10
2023-02-05T06:55:00.675Z,9.38
2023-02-05T06:57:02.242Z,9.00
2023-02-05T06:59:04.154Z,10.38
2023-02-05T07:01:05.802Z,8.73
2023-02-05T07:03:07.332Z,11.88
2023-02-05T07:05:09.212Z,12.85
2023-02-05T07:07:12.072Z,12.15
2023-02-05T07:09:13.585Z,11.13
2023-02-05T07:11:15.208Z,10.65
2023-02-05T07:13:16.734Z,10.30
2023-02-05T07:15:18.474Z,8.93
2023-02-05T07:17:19.981Z,10.05
2023-02-05T07:19:21.700Z,12.48
2023-02-05T07:21:23.186Z,9.63
2023-02-05T07:23:26.033Z,10.80
2023-02-05T07:25:27.555Z,11.15
2023-02-05T07:27:30.714Z,11.27
2023-02-05T07:29:32.363Z,11.90
2023-02-05T07:31:34.061Z,11.10
2023-02-05T07:33:35.746Z,11.82
2023-02-05T07:35:38.112Z,12.18
2023-02-05T07:37:39.637Z,11.88
2023-02-05T07:39:42.494Z,11.40
2023-02-05T07:41:44.028Z,12.52
2023-02-05T07:43:45.565Z,12.35
2023-02-05T07:45:47.259Z,12.80
2023-02-05T07:47:48.970Z,11.25
2023-02-05T07:49:50.591Z,12.50
2023-02-05T07:51:52.311Z,12.20
2023-02-05T07:53:54.015Z,12.75
2023-02-05T07:55:57.135Z,12.27
2023-02-05T07:57:58.957Z,11.38
2023-02-05T08:00:00.602Z,12.30
2023-02-05T08:02:02.610Z,12.70
2023-02-05T08:04:04.650Z,13.60
2023-02-05T08:06:07.717Z,13.02
2023-02-05T08:08:11.863Z,12.02
2023-02-05T08:10:14.628Z,13.82
2023-02-05T08:12:17.496Z,12.80
2023-02-05T08:14:19.025Z,11.60
2023-02-05T08:16:21.219Z,12.18
2023-02-05T08:18:23.440Z,12.90
2023-02-05T08:20:24.984Z,13.23
2023-02-05T08:22:26.532Z,13.18
2023-02-05T08:24:28.210Z,13.30
2023-02-05T08:26:29.802Z,13.55
2023-02-05T08:28:32.660Z,13.15
2023-02-05T08:30:34.283Z,13.85
2023-02-05T08:32:37.128Z,13.48
2023-02-05T08:34:38.609Z,13.65
2023-02-05T08:36:40.137Z,14.40
2023-02-05T08:38:41.912Z,13.10
2023-02-05T08:40:43.448Z,14.10
2023-02-05T08:42:45.001Z,12.77
2023-02-05T08:44:47.914Z,14.23
2023-02-05T08:46:50.629Z,14.02
2023-02-05T08:48:53.283Z,13.65
2023-02-05T08:50:54.849Z,14.57
2023-02-05T08:52:56.429Z,13.82
2023-02-05T08:54:58.513Z,13.35
2023-02-05T08:57:00.092Z,13.50
2023-02-05T08:59:01.674Z,13.77
2023-02-05T09:01:06.893Z,15.30
2023-02-05T09:03:08.415Z,12.75
2023-02-05T09:05:10.097Z,13.75
2023-02-05T09:07:11.604Z,13.65
2023-02-05T09:09:13.476Z,13.07
2023-02-05T09:11:21.077Z,14.85
2023-02-05T09:13:22.593Z,14.75
2023-02-05T09:15:24.168Z,13.02
2023-02-05T09:17:27.136Z,13.13
2023-02-05T09:19:29.053Z,14.75
2023-02-05T09:21:30.654Z,12.50
2023-02-05T09:23:32.234Z,13.85
2023-02-05T09:25:34.000Z,13.70
2023-02-05T09:27:35.905Z,13.48
2023-02-05T09:29:37.740Z,15.02
2023-02-05T09:31:41.088Z,14.60
2023-02-05T09:33:46.396Z,14.50
2023-02-05T09:35:48.101Z,13.63
2023-02-05T09:37:49.778Z,13.73
2023-02-05T09:42:21.077Z,13.75
2023-02-05T09:44:43.006Z,13.82
2023-02-05T09:46:53.349Z,14.40
2023-02-05T09:49:00.881Z,15.20
2023-02-05T09:51:03.440Z,14.05
2023-02-05T09:53:11.510Z,14.52
2023-02-05T09:55:19.838Z,14.27
2023-02-05T09:57:32.144Z,15.07
2023-02-05T09:59:34.170Z,15.57
2023-02-05T10:01:44.331Z,14.32
2023-02-05T10:03:48.496Z,16.48
2023-02-05T10:06:07.879Z,15.55
2023-02-05T10:08:19.207Z,16.00
2023-02-05T10:10:26.309Z,19.13
2023-02-05T10:12:40.361Z,17.10
2023-02-05T10:14:51.986Z,17.88
2023-02-05T10:17:09.842Z,15.85
2023-02-05T10:19:26.814Z,19.75
2023-02-05T10:21:47.764Z,20.98
2023-02-05T10:24:16.480Z,20.85
2023-02-05T10:26:18.217Z,18.65
2023-02-05T10:28:35.810Z,20.88
2023-02-05T10:30:47.610Z,18.92
2023-02-05T10:32:56.168Z,16.27
2023-02-05T10:35:00.678Z,16.33
2023-02-05T10:37:09.186Z,17.42
2023-02-05T10:39:14.237Z,17.15
2023-02-05T10:41:24.570Z,16.42
2023-02-05T10:43:30.065Z,16.60
2023-02-05T10:45:31.958Z,17.33
2023-02-05T10:48:02.413Z,18.60
2023-02-05T10:50:14.021Z,16.92
2023-02-05T10:52:17.451Z,17.70
2023-02-05T10:54:26.307Z,17.52
2023-02-05T10:56:27.936Z,15.20
2023-02-05T10:58:39.169Z,16.92
2023-02-05T11:00:40.923Z,16.20
2023-02-05T11:02:45.936Z,15.25
2023-02-05T11:04:52.605Z,16.63
2023-02-05T11:06:54.457Z,16.42
2023-02-05T11:08:57.554Z,18.23
2023-02-05T11:10:59.153Z,16.55
2023-02-05T11:13:05.086Z,17.00
2023-02-05T11:15:19.615Z,18.15
2023-02-05T11:17:22.967Z,17.10
2023-02-05T11:19:27.678Z,16.88
2023-02-05T11:21:48.651Z,18.30
2023-02-05T11:23:55.414Z,16.27
2023-02-05T11:25:59.686Z,16.65
2023-02-05T11:28:03.291Z,17.30
2023-02-05T11:30:49.614Z,15.23
2023-02-05T11:32:46.741Z,15.60
2023-02-05T11:34:48.414Z,15.43
2023-02-05T11:36:52.216Z,16.88
2023-02-05T11:38:54.988Z,16.67
2023-02-05T11:41:00.621Z,17.60
2023-02-05T11:43:07.508Z,19.85
2023-02-05T11:45:17.332Z,17.20
2023-02-05T11:47:24.935Z,17.90
2023-02-05T11:49:31.183Z,17.83
2023-02-05T11:51:45.320Z,17.20
2023-02-05T11:53:57.308Z,18.48
2023-02-05T11:56:07.433Z,17.50
2023-02-05T11:58:25.136Z,18.58
2023-02-05T12:00:36.622Z,18.17
2023-02-05T12:02:39.491Z,16.60
2023-02-05T12:04:47.471Z,17.17
2023-02-05T12:06:52.454Z,18.10
2023-02-05T12:08:54.059Z,17.10
2023-02-05T12:11:08.444Z,16.98
2023-02-05T12:13:21.492Z,18.15
2023-02-05T12:15:26.519Z,16.92
2023-02-05T12:17:35.235Z,17.67
2023-02-05T12:19:46.542Z,17.38
2023-02-05T12:21:58.280Z,20.63
2023-02-05T12:24:37.200Z,18.63
2023-02-05T12:26:44.001Z,17.27
2023-02-05T12:28:54.246Z,14.98
2023-02-05T12:31:08.163Z,17.25
2023-02-05T12:33:28.351Z,15.90
2023-02-05T12:35:44.872Z,18.00
2023-02-05T12:37:54.191Z,16.45
2023-02-05T12:40:07.148Z,16.02
2023-02-05T12:42:20.918Z,19.38
2023-02-05T12:44:38.070Z,18.02
2023-02-05T12:46:51.217Z,20.20
2023-02-05T12:49:09.912Z,20.10
2023-02-05T12:51:30.968Z,17.63
2023-02-05T12:53:51.323Z,16.95
2023-02-05T12:56:13.024Z,18.23
2023-02-05T12:58:19.768Z,17.50
2023-02-05T13:00:25.815Z,17.48
2023-02-05T13:02:33.481Z,15.75
2023-02-05T13:04:40.212Z,19.02
2023-02-05T13:06:47.735Z,17.00
2023-02-05T13:08:53.048Z,20.00
2023-02-05T13:10:59.708Z,20.10
2023-02-05T13:13:06.252Z,19.67
2023-02-05T13:15:16.508Z,19.38
2023-02-05T13:17:22.814Z,20.13
2023-02-05T13:19:28.277Z,21.73
2023-02-05T13:21:30.317Z,21.45
2023-02-05T13:23:35.187Z,18.98
2023-02-05T13:25:40.135Z,18.52
2023-02-05T13:27:46.485Z,21.42
2023-02-05T13:29:51.617Z,20.45
2023-02-05T13:32:10.566Z,20.10
2023-02-05T13:34:17.769Z,16.42
2023-02-05T13:36:47.170Z,18.75
2023-02-05T13:39:08.451Z,17.90
2023-02-05T13:41:28.522Z,14.85
2023-02-05T13:44:01.954Z,17.65
2023-02-05T13:46:33.919Z,16.63
2023-02-05T13:49:41.561Z,17.70
2023-02-05T13:51:53.249Z,21.95
2023-02-05T13:54:13.988Z,26.52
2023-02-05T13:56:30.900Z,19.38
2023-02-05T13:58:35.688Z,22.42
2023-02-05T14:00:40.230Z,17.88
2023-02-05T14:02:44.197Z,19.08
2023-02-05T14:04:48.394Z,25.60
2023-02-05T14:06:58.187Z,27.30
2023-02-05T14:09:03.485Z,15.45
2023-02-05T14:11:06.165Z,19.95
2023-02-05T14:13:17.762Z,23.48
2023-02-05T14:15:35.078Z,19.23
2023-02-05T14:17:54.527Z,15.50
2023-02-05T14:19:57.620Z,12.63
2023-02-05T14:22:04.099Z,12.85
2023-02-05T14:24:27.231Z,12.70
2023-02-05T14:26:44.800Z,11.38
2023-02-05T14:28:49.217Z,13.10
2023-02-05T14:30:52.265Z,13.63
2023-02-05T14:32:59.708Z,13.40
2023-02-05T14:35:01.988Z,12.38
2023-02-05T14:37:05.750Z,13.20
2023-02-05T14:39:20.419Z,13.88
2023-02-05T14:41:25.034Z,13.18
2023-02-05T14:43:32.179Z,14.15
2023-02-05T14:45:35.080Z,15.70
2023-02-05T14:47:40.522Z,17.90
2023-02-05T14:49:45.379Z,15.68
2023-02-05T14:51:52.288Z,37.30
2023-02-05T14:53:59.354Z,10.20
2023-02-05T14:56:02.016Z,8.05
2023-02-05T14:58:07.174Z,6.63
2023-02-05T15:00:24.510Z,6.00
2023-02-05T15:03:14.883Z,8.07
2023-02-05T15:05:21.752Z,9.55
2023-02-05T15:07:27.416Z,9.10
2023-02-05T15:09:41.251Z,8.02
2023-02-05T15:11:55.127Z,7.05
2023-02-05T15:14:25.689Z,8.30
2023-02-05T15:16:27.282Z,7.32
2023-02-05T15:18:32.102Z,7.32
2023-02-05T15:20:34.933Z,7.20
2023-02-05T15:22:40.256Z,6.65
2023-02-05T15:24:44.398Z,6.50
2023-02-05T15:26:51.764Z,6.65
2023-02-05T15:28:59.423Z,7.28
2023-02-05T15:31:18.630Z,7.80
2023-02-05T15:33:28.572Z,8.10
2023-02-05T15:35:33.399Z,8.45
2023-02-05T15:37:41.999Z,7.30
2023-02-05T15:39:51.127Z,7.25
2023-02-05T15:41:56.022Z,6.50
2023-02-05T15:43:59.945Z,8.15
2023-02-05T15:46:05.486Z,6.68
2023-02-05T15:48:12.451Z,8.60
2023-02-05T15:50:15.238Z,19.45
2023-02-05T15:52:20.742Z,16.45
2023-02-05T15:54:22.947Z,17.02
2023-02-05T15:56:28.131Z,10.18
2023-02-05T15:58:29.958Z,8.38
2023-02-05T16:00:36.987Z,14.00
2023-02-05T16:02:38.544Z,31.63
2023-02-05T16:04:40.155Z,15.10
2023-02-05T16:06:41.831Z,17.20
2023-02-05T16:08:46.722Z,12.80
2023-02-05T16:10:53.031Z,7.50
2023-02-05T16:12:59.928Z,11.55
2023-02-05T16:15:03.360Z,14.55
2023-02-05T16:17:11.042Z,8.63
2023-02-05T16:19:20.933Z,12.23
2023-02-05T16:21:25.726Z,11.15
2023-02-05T16:23:33.843Z,7.95
2023-02-05T16:25:43.440Z,8.10
2023-02-05T16:27:48.752Z,17.05
2023-02-05T16:29:55.686Z,10.10
2023-02-05T16:32:01.584Z,8.50
2023-02-05T16:34:11.887Z,29.88
2023-02-05T16:36:19.211Z,55.63
2023-02-05T16:38:22.223Z,22.50
2023-02-05T16:40:32.774Z,13.25
2023-02-05T16:42:38.202Z,10.70
2023-02-05T16:44:40.354Z,13.60
2023-02-05T16:46:43.309Z,9.90
2023-02-05T16:48:49.555Z,9.20
2023-02-05T16:50:51.844Z,8.63
2023-02-05T16:52:56.493Z,8.00
2023-02-05T16:54:58.814Z,9.63
2023-02-05T16:57:09.222Z,26.00
2023-02-05T16:59:17.911Z,13.85
2023-02-05T17:01:24.639Z,11.50
2023-02-05T17:03:32.087Z,20.98
2023-02-05T17:05:36.508Z,26.25
2023-02-05T17:07:38.078Z,14.30
2023-02-05T17:09:39.990Z,11.02
2023-02-05T17:11:42.782Z,11.10
2023-02-05T17:13:45.117Z,11.20
2023-02-05T17:15:46.739Z,13.30
2023-02-05T17:17:50.257Z,12.18
2023-02-05T17:20:22.821Z,13.93
2023-02-05T17:22:24.333Z,11.07
2023-02-05T17:24:26.120Z,11.88
2023-02-05T17:26:30.880Z,22.67
2023-02-05T17:28:32.589Z,13.65
2023-02-05T17:30:35.113Z,12.93
2023-02-05T17:32:37.367Z,14.05
2023-02-05T17:34:38.867Z,12.55
2023-02-05T17:36:41.925Z,12.80
2023-02-05T17:38:43.712Z,11.20
2023-02-05T17:40:45.273Z,10.93
2023-02-05T17:42:47.534Z,13.35
2023-02-05T17:44:49.797Z,14.70
2023-02-05T17:46:51.517Z,16.08
2023-02-05T17:48:53.137Z,17.95
2023-02-05T17:50:54.718Z,17.45
2023-02-05T17:52:57.603Z,53.30
2023-02-05T17:54:59.208Z,29.50
2023-02-05T17:57:12.158Z,16.58
2023-02-05T17:59:15.932Z,19.00
2023-02-05T18:01:18.304Z,17.55
2023-02-05T18:03:19.831Z,22.15
2023-02-05T18:05:22.671Z,14.75
2023-02-05T18:07:29.334Z,15.45
2023-02-05T18:09:32.177Z,11.90
2023-02-05T18:11:33.850Z,12.00
2023-02-05T18:13:35.755Z,12.60
2023-02-05T18:15:37.507Z,12.85
2023-02-05T18:17:39.635Z,12.75
2023-02-05T18:19:41.170Z,10.18
2023-02-05T18:21:42.741Z,11.02
2023-02-05T18:23:44.298Z,10.18
2023-02-05T18:25:47.163Z,9.90
2023-02-05T18:27:48.771Z,9.10
2023-02-05T18:29:50.430Z,10.32
2023-02-05T18:31:51.921Z,8.73
2023-02-05T18:33:53.413Z,9.80
2023-02-05T18:36:00.338Z,8.85
2023-02-05T18:38:01.885Z,8.82
2023-02-05T18:40:04.003Z,9.10
2023-02-05T18:42:06.941Z,8.65
2023-02-05T18:44:08.642Z,8.25
2023-02-05T18:46:12.360Z,8.38
2023-02-05T18:48:14.068Z,8.52
2023-02-05T18:50:16.361Z,8.38
2023-02-05T18:52:17.930Z,9.10
2023-02-05T18:54:19.511Z,8.70
2023-02-05T18:56:22.964Z,7.95
2023-02-05T18:58:25.879Z,8.80
2023-02-05T19:00:27.551Z,8.43
2023-02-05T19:02:29.025Z,7.90
2023-02-05T19:04:30.555Z,8.85
2023-02-05T19:06:32.576Z,8.73
2023-02-05T19:08:34.267Z,8.43
2023-02-05T19:10:36.463Z,9.00
2023-02-05T19:12:38.160Z,8.85
2023-02-05T19:14:41.018Z,9.80
2023-02-05T19:16:43.696Z,8.82
2023-02-05T19:18:46.160Z,7.90
2023-02-05T19:20:47.698Z,9.02
2023-02-05T19:22:52.368Z,9.68
2023-02-05T19:24:53.884Z,8.68
2023-02-05T19:26:56.225Z,10.20
2023-02-05T19:28:59.827Z,10.45
2023-02-05T19:31:03.920Z,14.85
2023-02-05T19:33:05.582Z,18.17
2023-02-05T19:35:07.794Z,16.40
2023-02-05T19:37:11.861Z,15.25
2023-02-05T19:39:14.581Z,20.23
2023-02-05T19:41:17.651Z,14.02
2023-02-05T19:43:19.214Z,16.52
2023-02-05T19:45:20.773Z,14.35
2023-02-05T19:47:23.637Z,15.07
2023-02-05T19:49:25.237Z,34.55
2023-02-05T19:51:26.863Z,14.00
2023-02-05T19:53:28.397Z,14.07
2023-02-05T19:55:31.325Z,11.90
2023-02-05T19:57:33.895Z,42.35
2023-02-05T19:59:35.546Z,39.67
2023-02-05T20:01:38.363Z,17.55
2023-02-05T20:03:42.174Z,26.23
2023-02-05T20:05:43.660Z,23.15
2023-02-05T20:07:48.624Z,13.75
2023-02-05T20:09:50.146Z,24.45
2023-02-05T20:11:52.023Z,28.75
2023-02-05T20:13:53.698Z,15.50
2023-02-05T20:15:55.324Z,18.30
2023-02-05T20:17:58.508Z,15.85
2023-02-05T20:20:12.338Z,13.75
2023-02-05T20:22:17.382Z,10.85
2023-02-05T20:24:18.961Z,12.27
2023-02-05T20:26:21.228Z,9.50
2023-02-05T20:28:23.359Z,10.07
2023-02-05T20:30:25.081Z,14.73
2023-02-05T20:32:26.768Z,9.82
2023-02-05T20:34:28.782Z,29.90
2023-02-05T20:36:33.587Z,17.58
2023-02-05T20:38:35.402Z,14.35
2023-02-05T20:40:37.078Z,9.45
2023-02-05T20:42:38.763Z,11.70
2023-02-05T20:44:41.172Z,9.40
2023-02-05T20:46:42.856Z,9.30
2023-02-05T20:48:44.710Z,9.10
2023-02-05T20:50:46.297Z,11.60
2023-02-05T20:52:49.217Z,11.93
2023-02-05T20:54:50.946Z,9.02
2023-02-05T20:56:53.368Z,9.10
2023-02-05T20:58:57.760Z,8.13
2023-02-05T21:01:05.763Z,8.00
2023-02-05T21:03:07.260Z,8.63
2023-02-05T21:05:08.755Z,7.70
2023-02-05T21:07:10.519Z,8.55
2023-02-05T21:09:14.486Z,7.38
2023-02-05T21:11:17.907Z,7.38
2023-02-05T21:13:19.560Z,8.80
2023-02-05T21:15:21.094Z,8.32
2023-02-05T21:17:22.572Z,8.68
2023-02-05T21:19:24.096Z,7.70
2023-02-05T21:21:27.749Z,7.10
2023-02-05T21:23:29.241Z,7.35
2023-02-05T21:25:35.121Z,8.50
2023-02-05T21:27:36.637Z,7.90
2023-02-05T21:29:38.304Z,7.97
2023-02-05T21:31:42.034Z,8.80
2023-02-05T21:33:43.618Z,8.38
2023-02-05T21:35:45.174Z,8.23
2023-02-05T21:37:46.702Z,8.63
2023-02-05T21:39:49.437Z,8.27
2023-02-05T21:41:54.049Z,8.20
2023-02-05T21:43:58.158Z,7.30
2023-02-05T21:46:01.326Z,8.98
2023-02-05T21:48:02.910Z,7.90
2023-02-05T21:50:05.838Z,10.07
2023-02-05T21:52:08.115Z,9.57
2023-02-05T21:54:10.778Z,9.80
2023-02-05T21:56:15.582Z,9.65
2023-02-05T21:58:18.546Z,9.93
2023-02-05T22:00:20.386Z,10.10
2023-02-05T22:02:21.946Z,10.32
2023-02-05T22:04:23.547Z,11.02
2023-02-05T22:06:27.246Z,9.23
2023-02-05T22:08:30.660Z,9.90
2023-02-05T22:10:32.153Z,9.65
2023-02-05T22:12:33.663Z,10.07
2023-02-05T22:14:36.559Z,9.77
2023-02-05T22:16:38.711Z,10.90
2023-02-05T22:18:41.196Z,9.70
2023-02-05T22:20:42.639Z,10.35
2023-02-05T22:22:44.304Z,10.20
2023-02-05T22:24:45.835Z,9.85
2023-02-05T22:26:47.678Z,9.23
2023-02-05T22:28:49.520Z,10.38
2023-02-05T22:30:58.732Z,9.65
2023-02-05T22:33:00.257Z,9.68
2023-02-05T22:35:01.795Z,9.43
2023-02-05T22:37:03.271Z,10.23
2023-02-05T22:39:06.601Z,8.32
2023-02-05T22:41:09.816Z,9.07
2023-02-05T22:43:11.353Z,8.23
2023-02-05T22:45:12.959Z,8.07
2023-02-05T22:47:15.856Z,9.35
2023-02-05T22:49:17.345Z,7.72
2023-02-05T22:51:20.677Z,8.27
2023-02-05T22:53:22.151Z,8.10
2023-02-05T22:55:23.583Z,6.57
2023-02-05T22:57:25.163Z,7.03
2023-02-05T22:59:26.827Z,7.65
2023-02-05T23:01:30.641Z,7.15
2023-02-05T23:03:33.768Z,6.35
2023-02-05T23:05:35.585Z,7.50
2023-02-05T23:07:37.474Z,7.35
2023-02-05T23:09:38.994Z,6.90
2023-02-05T23:11:40.634Z,7.15
2023-02-05T23:13:42.292Z,7.35
2023-02-05T23:15:43.826Z,6.63
2023-02-05T23:17:45.376Z,7.75
2023-02-05T23:19:50.804Z,7.20
2023-02-05T23:21:52.349Z,6.65
2023-02-05T23:23:54.100Z,8.77
2023-02-05T23:25:55.546Z,6.50
2023-02-05T23:27:57.126Z,8.45
2023-02-05T23:29:58.757Z,6.97
2023-02-05T23:32:00.241Z,7.15
2023-02-05T23:34:01.838Z,8.23
2023-02-05T23:36:06.860Z,7.60
2023-02-05T23:38:08.566Z,7.22
2023-02-05T23:40:11.090Z,7.38
2023-02-05T23:42:12.614Z,7.32
2023-02-05T23:44:16.468Z,6.70
2023-02-05T23:46:18.022Z,6.45
2023-02-05T23:48:20.037Z,6.45
2023-02-05T23:50:21.581Z,7.03
2023-02-05T23:52:24.597Z,6.95
2023-02-05T23:54:26.363Z,6.97
2023-02-05T23:56:27.898Z,7.65
2023-02-05T23:58:29.367Z,8.05
